Time;durP1;ratioP1;P1;durP2;ratioP2;P2;SDS_P1;SDS_P2;PMS_P1;PMS_P2;Temp;Humidity;BMP_temperature;BMP_pressure;BME280_temperature;BME280_humidity;BME280_pressure;Samples;Min_cycle;Max_cycle;Signal;HPM_P1;HPM_P2
2023/01/20 00:01:51;;;;;;;12.63;8.23;;;;;;;2.57;66.98;98985.13;7685167;32;37660;-82
2023/01/20 00:06:08;;;;;;;14.55;8.48;;;;;;;2.38;67.78;98991.72;7685626;32;36937;-81
2023/01/20 00:10:24;;;;;;;15.40;8.07;;;;;;;2.43;67.69;99014.19;7685494;32;39317;-82
2023/01/20 00:14:40;;;;;;;14.50;8.00;;;;;;;2.56;67.64;99026.53;7685355;32;40002;-82
2023/01/20 00:18:57;;;;;;;14.70;7.40;;;;;;;2.61;66.97;99026.63;7684420;32;38473;-82
2023/01/20 00:23:13;;;;;;;12.95;7.45;;;;;;;2.67;66.09;99032.13;7671918;32;37808;-82
2023/01/20 00:27:29;;;;;;;13.55;7.72;;;;;;;2.86;65.36;99038.16;7684923;32;39525;-82
2023/01/20 00:31:46;;;;;;;11.68;7.57;;;;;;;3.07;65.14;99037.50;7685285;32;40011;-83
2023/01/20 00:36:02;;;;;;;12.68;8.05;;;;;;;2.77;65.82;99053.88;7685191;32;37901;-83
2023/01/20 00:40:18;;;;;;;11.43;7.68;;;;;;;3.03;65.18;99027.44;7671794;32;37150;-82
2023/01/20 00:44:35;;;;;;;13.13;7.80;;;;;;;2.25;67.48;99036.66;7685244;32;39208;-82
2023/01/20 00:48:51;;;;;;;13.20;8.15;;;;;;;2.84;66.14;99034.88;7696341;32;40798;-82
2023/01/20 00:53:08;;;;;;;14.32;8.43;;;;;;;3.15;64.72;99033.59;7684966;32;38003;-82
2023/01/20 00:57:24;;;;;;;15.07;8.80;;;;;;;3.34;64.39;99032.28;7684918;32;37110;-82
2023/01/20 01:01:40;;;;;;;14.00;8.30;;;;;;;3.27;64.50;99047.00;7684596;32;39465;-82
2023/01/20 01:06:08;;;;;;;16.98;7.93;;;;;;;3.35;64.02;99054.69;7671281;32;40585;-81
2023/01/20 01:10:25;;;;;;;12.90;8.10;;;;;;;2.76;65.36;99057.59;7684782;32;38695;-82
2023/01/20 01:14:41;;;;;;;13.48;8.00;;;;;;;2.76;65.68;99044.12;7684727;32;36825;-81
2023/01/20 01:18:57;;;;;;;15.98;9.13;;;;;;;2.99;64.81;99052.16;7684539;32;39492;-82
2023/01/20 01:23:13;;;;;;;12.98;7.65;;;;;;;3.10;64.81;99041.56;7684649;32;40881;-82
2023/01/20 01:27:30;;;;;;;13.45;7.80;;;;;;;2.99;65.19;99040.56;7670731;32;38704;-82
2023/01/20 01:31:46;;;;;;;15.88;8.57;;;;;;;2.89;65.69;99035.78;7670431;32;37909;-82
2023/01/20 01:41:15;;;;;;;14.32;8.10;;;;;;;3.08;65.40;99011.38;7657855;32;39693;-82
2023/01/20 01:45:32;;;;;;;16.15;9.43;;;;;;;3.14;65.08;99005.00;7644591;32;37935;-82
2023/01/20 01:49:48;;;;;;;16.52;9.68;;;;;;;3.26;65.00;99003.09;7644278;32;37108;-82
2023/01/20 01:54:13;;;;;;;17.20;9.13;;;;;;;2.96;66.18;98996.06;7644146;32;40025;-82
2023/01/20 01:58:34;;;;;;;16.73;9.93;;;;;;;2.94;65.67;98994.69;7675204;32;39911;-82
2023/01/20 02:02:51;;;;;;;18.60;9.48;;;;;;;3.26;64.16;98997.69;7683351;32;37874;-81
2023/01/20 02:07:10;;;;;;;17.15;9.68;;;;;;;2.64;65.46;98990.38;7657854;32;37934;-82
2023/01/20 02:11:27;;;;;;;14.85;8.90;;;;;;;2.85;65.15;98991.56;7670610;32;39939;-81
2023/01/20 02:16:04;;;;;;;16.70;9.27;;;;;;;3.08;64.54;98987.13;7670010;32;40022;-81
2023/01/20 02:20:35;;;;;;;20.62;9.13;;;;;;;2.78;65.09;98989.03;7670861;32;38647;-82
2023/01/20 02:25:10;;;;;;;16.40;8.25;;;;;;;2.89;65.16;98986.53;7683213;32;37844;-81
2023/01/20 02:29:45;;;;;;;14.05;8.88;;;;;;;3.12;64.32;98980.19;7683241;32;39334;-82
2023/01/20 02:34:04;;;;;;;12.65;7.80;;;;;;;3.08;64.46;98971.78;7683025;32;40720;-82
2023/01/20 02:38:38;;;;;;;13.48;8.32;;;;;;;2.99;64.91;98971.34;7683002;32;38686;-82
2023/01/20 02:43:01;;;;;;;15.55;8.98;;;;;;;2.59;65.27;98977.63;7671976;32;36920;-82
2023/01/20 02:47:42;;;;;;;14.73;8.90;;;;;;;2.99;64.46;98982.13;7686668;32;40107;-82
2023/01/20 02:52:13;;;;;;;15.23;8.40;;;;;;;3.16;64.75;98978.66;7676622;32;40116;-82
2023/01/20 02:56:30;;;;;;;13.73;8.70;;;;;;;3.22;64.33;98983.06;7672993;32;37785;-82
2023/01/20 03:01:01;;;;;;;14.45;8.98;;;;;;;2.86;65.65;98977.03;7672714;32;37763;-81
2023/01/20 03:05:44;;;;;;;12.57;7.57;;;;;;;3.13;64.82;98989.91;7674186;32;39127;-82
2023/01/20 03:10:04;;;;;;;12.25;8.50;;;;;;;3.12;63.79;98989.09;7673027;32;39842;-81
2023/01/20 03:14:21;;;;;;;12.48;7.95;;;;;;;2.39;64.82;99004.13;7672665;32;37659;-82
2023/01/20 03:18:38;;;;;;;13.70;7.25;;;;;;;2.75;64.03;99002.94;7686094;32;37053;-81
2023/01/20 03:22:54;;;;;;;13.25;7.80;;;;;;;2.79;64.07;99008.66;7672589;32;40105;-82
2023/01/20 03:27:11;;;;;;;13.70;8.38;;;;;;;2.88;63.58;99001.87;7685932;32;39998;-82
2023/01/20 03:31:34;;;;;;;14.45;7.80;;;;;;;3.15;63.55;98995.87;7672428;32;37966;-82
2023/01/20 03:35:51;;;;;;;12.07;7.60;;;;;;;2.81;65.27;98995.78;7672310;32;37082;-82
2023/01/20 03:40:08;;;;;;;13.05;7.85;;;;;;;3.04;64.02;99005.66;7672340;32;39252;-82
2023/01/20 03:44:40;;;;;;;14.35;7.32;;;;;;;3.15;63.66;99006.66;7672037;32;40154;-81
2023/01/20 03:49:27;;;;;;;12.73;7.68;;;;;;;3.36;63.19;99014.03;7672158;32;38406;-82
2023/01/20 03:54:17;;;;;;;13.52;7.35;;;;;;;3.20;64.29;99026.41;7674305;32;37001;-82
2023/01/20 03:58:36;;;;;;;12.75;7.45;;;;;;;3.52;63.24;99014.28;7677509;32;39746;-82
2023/01/20 04:02:54;;;;;;;13.95;7.93;;;;;;;3.58;63.17;99024.87;7672183;32;39959;-82
2023/01/20 04:07:15;;;;;;;15.52;8.35;;;;;;;3.31;64.51;99016.66;7671641;32;37815;-82
2023/01/20 04:11:33;;;;;;;14.50;8.38;;;;;;;3.37;64.36;99006.75;7685177;32;37964;-82
2023/01/20 04:15:50;;;;;;;17.50;9.35;;;;;;;3.54;63.73;99009.47;7685372;32;40234;-82
2023/01/20 04:20:12;;;;;;;14.23;8.93;;;;;;;3.17;64.43;99009.91;7671813;32;39911;-82
2023/01/20 04:24:37;;;;;;;18.40;9.45;;;;;;;3.44;64.03;99003.91;7672063;32;38599;-82
2023/01/20 04:28:53;;;;;;;13.68;8.63;;;;;;;3.29;64.66;99004.47;7672123;32;37757;-82
2023/01/20 04:33:09;;;;;;;15.73;8.30;;;;;;;3.62;63.83;99010.94;7685272;32;39850;-82
2023/01/20 04:37:25;;;;;;;13.90;8.27;;;;;;;3.53;64.19;99005.13;7685154;32;40796;-82
2023/01/20 04:41:41;;;;;;;15.00;8.13;;;;;;;3.47;63.89;99009.63;7685334;32;38673;-82
2023/01/20 04:45:58;;;;;;;13.60;8.45;;;;;;;3.22;64.23;99028.03;7685170;32;37258;-82
2023/01/20 04:50:15;;;;;;;16.30;9.60;;;;;;;3.29;64.23;99034.91;7685201;32;40048;-81
2023/01/20 04:54:31;;;;;;;15.10;9.40;;;;;;;3.47;63.62;99038.47;7684935;32;39662;-81
2023/01/20 04:58:47;;;;;;;15.18;9.15;;;;;;;3.64;62.90;99031.19;7684780;32;38676;-81
2023/01/20 05:03:04;;;;;;;15.40;9.15;;;;;;;3.46;63.43;99034.13;7684957;32;37115;-81
2023/01/20 05:07:21;;;;;;;16.15;9.98;;;;;;;3.50;63.31;99035.25;7684175;32;39877;-81
2023/01/20 05:11:38;;;;;;;15.65;9.00;;;;;;;3.07;64.98;99031.25;7684484;32;40039;-83
2023/01/20 05:15:56;;;;;;;15.10;9.52;;;;;;;3.48;63.83;99007.75;7684596;32;37869;-83
2023/01/20 05:20:13;;;;;;;17.87;9.20;;;;;;;3.52;63.90;99000.81;7684758;32;37747;-82
2023/01/20 05:24:29;;;;;;;15.18;9.02;;;;;;;3.49;64.06;98991.31;7684667;32;39293;-82
2023/01/20 05:28:45;;;;;;;16.77;9.10;;;;;;;3.41;63.78;98978.25;7684626;32;39972;-82
2023/01/20 05:33:02;;;;;;;17.45;9.93;;;;;;;3.34;63.87;98978.41;7684418;32;37906;-81
2023/01/20 05:37:18;;;;;;;14.95;9.57;;;;;;;3.30;63.85;98976.47;7684377;32;37140;-81
2023/01/20 05:41:34;;;;;;;16.85;9.73;;;;;;;3.43;63.55;98961.84;7683949;32;39494;-82
2023/01/20 05:45:50;;;;;;;17.12;9.85;;;;;;;3.35;63.64;98955.81;7684404;32;40032;-82
2023/01/20 05:50:07;;;;;;;18.40;10.00;;;;;;;3.11;64.56;98979.37;7684107;32;38526;-82
2023/01/20 05:54:25;;;;;;;17.52;9.95;;;;;;;3.08;64.58;98974.47;7683619;32;37337;-82
2023/01/20 05:58:41;;;;;;;16.02;9.35;;;;;;;3.10;64.51;98982.31;7684000;32;39489;-82
2023/01/20 06:02:58;;;;;;;17.02;10.45;;;;;;;3.15;64.55;98988.59;7683722;32;40012;-83
2023/01/20 06:07:14;;;;;;;17.75;10.38;;;;;;;3.15;64.51;98985.91;7683471;32;38622;-82
2023/01/20 06:11:31;;;;;;;18.83;10.20;;;;;;;3.06;64.64;98975.78;7669947;32;38059;-82
2023/01/20 06:15:54;;;;;;;17.05;10.23;;;;;;;3.19;64.36;98988.94;7683682;32;39876;-81
2023/01/20 06:20:11;;;;;;;16.58;10.18;;;;;;;3.16;64.29;98997.53;7686667;32;40785;-82
2023/01/20 06:24:27;;;;;;;19.17;10.10;;;;;;;3.31;63.96;98995.09;7686579;32;37658;-82
2023/01/20 06:28:43;;;;;;;16.75;10.60;;;;;;;3.10;64.75;98993.09;7686236;32;37877;-82
2023/01/20 06:32:59;;;;;;;16.73;10.32;;;;;;;3.18;64.71;98992.69;7686510;32;40099;-81
2023/01/20 06:37:16;;;;;;;21.10;10.98;;;;;;;3.20;64.79;99006.72;7685700;32;40815;-82
2023/01/20 06:41:32;;;;;;;24.45;13.77;;;;;;;3.25;64.75;99003.31;7686452;32;37837;-83
2023/01/20 06:45:48;;;;;;;18.05;11.32;;;;;;;3.05;64.82;99001.87;7672907;32;37183;-82
2023/01/20 06:50:05;;;;;;;21.42;11.15;;;;;;;3.03;64.96;99009.38;7686427;32;39350;-82
2023/01/20 06:54:21;;;;;;;19.15;11.00;;;;;;;3.08;64.89;99011.38;7686355;32;39451;-82
2023/01/20 06:58:37;;;;;;;20.48;11.82;;;;;;;3.08;64.78;99022.94;7686170;32;37915;-81
2023/01/20 07:02:53;;;;;;;15.95;10.27;;;;;;;3.16;64.80;99013.69;7672637;32;36994;-81
2023/01/20 07:07:11;;;;;;;19.05;10.30;;;;;;;3.32;64.33;99010.19;7680944;32;39395;-81
2023/01/20 07:11:30;;;;;;;20.33;11.32;;;;;;;3.28;64.42;99017.13;7659789;32;40071;-82
2023/01/20 07:15:46;;;;;;;21.15;11.00;;;;;;;3.30;63.79;99024.97;7659592;32;38202;-82
2023/01/20 07:20:02;;;;;;;19.87;10.73;;;;;;;3.13;64.23;99030.31;7645959;32;37999;-81
2023/01/20 07:24:19;;;;;;;24.80;11.12;;;;;;;3.31;64.18;99027.41;7659654;32;39700;-82
2023/01/20 07:28:36;;;;;;;19.75;10.88;;;;;;;3.32;63.43;99047.09;7664158;32;39911;-82
2023/01/20 07:32:52;;;;;;;19.80;11.43;;;;;;;3.14;64.24;99053.47;7663260;32;38686;-83
2023/01/20 07:37:08;;;;;;;19.77;10.75;;;;;;;3.43;65.77;99067.75;7659782;32;37906;-83
2023/01/20 07:41:24;;;;;;;19.27;11.40;;;;;;;3.44;65.28;99057.81;7676764;32;39419;-84
2023/01/20 07:45:41;;;;;;;21.45;12.15;;;;;;;3.43;65.05;99059.66;7685655;32;40812;-81
2023/01/20 07:49:57;;;;;;;25.42;12.70;;;;;;;3.72;63.82;99057.72;7675965;32;37668;-82
2023/01/20 07:54:13;;;;;;;19.23;11.32;;;;;;;3.59;64.04;99066.16;7659909;32;37748;-85
2023/01/20 07:58:30;;;;;;;25.70;13.43;;;;;;;3.28;67.06;99086.34;7659728;32;40946;-81
2023/01/20 08:02:46;;;;;;;20.17;12.13;;;;;;;3.51;65.11;99072.75;7684404;32;38491;-81
2023/01/20 08:07:02;;;;;;;24.37;12.45;;;;;;;3.47;65.01;99068.09;7684812;32;38591;-82
2023/01/20 08:11:19;;;;;;;21.27;12.80;;;;;;;3.72;64.36;99068.50;7695675;32;37311;-82
2023/01/20 08:15:36;;;;;;;23.80;13.38;;;;;;;3.47;65.29;99068.91;7684174;32;39465;-82
2023/01/20 08:19:52;;;;;;;23.30;12.25;;;;;;;3.32;64.85;99074.84;7683303;32;39864;-81
2023/01/20 08:24:10;;;;;;;20.02;11.30;;;;;;;3.64;63.88;99071.63;7684418;32;37887;-81
2023/01/20 08:28:29;;;;;;;21.42;12.93;;;;;;;3.34;65.00;99066.50;7670866;32;37189;-82
2023/01/20 08:32:45;;;;;;;24.80;13.52;;;;;;;3.82;63.25;99085.94;7671551;32;39008;-82
2023/01/20 08:37:01;;;;;;;24.48;12.30;;;;;;;3.78;63.14;99084.78;7685075;32;40014;-83
2023/01/20 08:41:21;;;;;;;24.98;12.73;;;;;;;3.78;64.63;99085.63;7683989;32;37918;-81
2023/01/20 08:45:37;;;;;;;22.40;12.30;;;;;;;3.84;65.11;99084.63;7670830;32;36938;-81
2023/01/20 08:49:53;;;;;;;20.73;12.20;;;;;;;3.74;63.92;99093.37;7684243;32;40112;-82
2023/01/20 08:54:10;;;;;;;21.90;12.65;;;;;;;3.86;63.70;99092.47;7671215;32;40138;-81
2023/01/20 08:58:27;;;;;;;23.65;12.07;;;;;;;3.73;63.57;99094.44;7684585;32;37863;-82
2023/01/20 09:02:43;;;;;;;22.50;11.75;;;;;;;3.73;64.19;99099.81;7668778;32;37701;-82
2023/01/20 09:06:59;;;;;;;22.20;12.90;;;;;;;3.73;65.08;99099.81;7669558;32;39056;-82
2023/01/20 09:11:18;;;;;;;20.90;11.82;;;;;;;4.00;63.21;99095.66;7644663;32;40574;-81
2023/01/20 09:15:35;;;;;;;21.98;12.60;;;;;;;3.91;63.32;99095.25;7658895;32;37990;-81
2023/01/20 09:19:51;;;;;;;25.58;13.38;;;;;;;3.96;63.35;99092.63;7658792;32;36937;-82
2023/01/20 09:24:08;;;;;;;20.23;11.75;;;;;;;4.11;62.97;99089.38;7657993;32;40165;-81
2023/01/20 09:28:24;;;;;;;24.95;13.13;;;;;;;4.23;62.41;99094.69;7663545;32;39906;-82
2023/01/20 09:32:40;;;;;;;26.92;13.50;;;;;;;4.23;62.47;99086.56;7659337;32;37983;-81
2023/01/20 09:43:52;;;;;;;21.90;12.25;;;;;;;4.21;62.70;99088.69;7670228;32;38423;-80
2023/01/20 09:46:41;;;;;;;21.67;12.18;;;;;;;3.89;64.26;99082.00;7667455;32;40798;-82
2023/01/20 09:55:57;;;;;;;26.35;14.52;;;;;;;4.53;62.93;99048.37;7685942;32;37198;-82
2023/01/20 10:00:20;;;;;;;25.08;14.70;;;;;;;4.36;63.05;99039.53;7647325;32;39037;-82
2023/01/20 10:04:39;;;;;;;;;;;;;;;4.46;62.94;99031.56;7663487;32;40807;-82
2023/01/20 10:08:57;;;;;;;24.17;13.80;;;;;;;4.51;62.43;99021.62;7656132;32;38434;-80
2023/01/20 10:13:35;;;;;;;24.27;12.80;;;;;;;4.29;63.40;99023.50;7658288;32;36907;-81
2023/01/20 10:17:56;;;;;;;24.70;13.75;;;;;;;4.60;62.39;99015.81;7643012;32;39210;-82
2023/01/20 10:22:36;;;;;;;29.87;14.98;;;;;;;4.53;62.69;98999.00;7653975;32;40150;-81
2023/01/20 10:27:00;;;;;;;25.98;14.75;;;;;;;4.69;61.54;98981.88;7654211;32;36775;-82
2023/01/20 10:31:21;;;;;;;26.83;15.40;;;;;;;4.45;62.42;98971.37;7656704;32;37259;-81
2023/01/20 10:35:41;;;;;;;28.77;16.85;;;;;;;4.18;62.21;98970.50;7642974;32;40083;-82
2023/01/20 10:40:10;;;;;;;27.52;14.98;;;;;;;4.29;62.49;98962.28;7642890;32;40686;-80
2023/01/20 10:44:26;;;;;;;28.67;14.65;;;;;;;4.36;61.75;98966.66;7634713;32;38728;-80
2023/01/20 10:48:50;;;;;;;26.10;15.13;;;;;;;3.87;63.41;98965.47;7642055;32;37200;-80
2023/01/20 10:53:36;;;;;;;28.20;15.45;;;;;;;3.69;64.40;98963.87;7655948;32;40166;-81
2023/01/20 10:58:20;;;;;;;25.73;14.23;;;;;;;3.83;64.17;98953.56;7655206;32;40472;-81
2023/01/20 11:02:37;;;;;;;25.20;13.02;;;;;;;3.60;64.95;98970.75;7651548;32;36378;-80
2023/01/20 11:06:58;;;;;;;25.58;13.65;;;;;;;3.57;64.50;98973.94;7659046;32;36656;-84
2023/01/20 11:11:20;;;;;;;25.48;14.07;;;;;;;3.69;64.42;98974.66;7658940;32;40157;-83
2023/01/20 11:15:57;;;;;;;21.27;13.25;;;;;;;3.69;64.85;98985.47;7659236;32;39949;-85
2023/01/20 11:20:22;;;;;;;25.55;14.00;;;;;;;3.56;65.13;98988.47;7646368;32;37839;-85
2023/01/20 11:24:44;;;;;;;21.95;13.15;;;;;;;3.74;64.50;98976.59;7647131;32;37211;-83
2023/01/20 11:29:10;;;;;;;22.20;12.73;;;;;;;4.35;63.21;98979.34;7659335;32;39304;-86
2023/01/20 11:33:28;;;;;;;25.23;13.73;;;;;;;4.34;63.48;98980.41;7646529;32;39594;-86
2023/01/20 11:37:45;;;;;;;23.12;12.93;;;;;;;3.95;64.21;98977.75;7644946;32;39199;-83
2023/01/20 11:42:24;;;;;;;21.20;13.68;;;;;;;4.03;64.24;98960.31;7660336;32;37686;-79
2023/01/20 11:46:42;;;;;;;22.58;13.00;;;;;;;3.81;64.65;98960.25;7664555;32;40591;-81
2023/01/20 11:51:02;;;;;;;22.00;13.73;;;;;;;4.28;63.70;98944.44;7659016;32;39882;-85
2023/01/20 11:55:23;;;;;;;25.75;15.85;;;;;;;4.10;63.68;98942.84;7656251;32;37927;-84
2023/01/20 11:59:48;;;;;;;20.25;13.10;;;;;;;3.96;64.77;98925.41;7650839;32;37117;-83
2023/01/20 12:04:26;;;;;;;24.77;13.38;;;;;;;4.24;63.59;98931.69;7682059;32;39352;-87
2023/01/20 12:08:55;;;;;;;26.20;15.43;;;;;;;3.70;65.33;98938.53;7645142;32;40867;-84
2023/01/20 12:13:25;;;;;;;23.20;14.15;;;;;;;3.22;67.71;98945.34;7658936;32;37585;-85
2023/01/20 12:17:47;;;;;;;26.60;13.25;;;;;;;3.26;67.29;98927.66;7684339;32;37889;-84
2023/01/20 12:22:11;;;;;;;25.57;13.30;;;;;;;3.47;66.27;98928.78;7684953;32;39438;-85
2023/01/20 12:26:30;;;;;;;;;;;;;;;3.35;67.44;98920.78;7672124;32;39860;-85
2023/01/20 12:31:11;;;;;;;20.52;11.98;;;;;;;3.58;66.32;98924.34;7685186;32;39458;-85
2023/01/20 12:35:29;;;;;;;22.75;13.45;;;;;;;3.31;67.45;98925.03;7685051;32;36934;-85
2023/01/20 12:39:58;;;;;;;23.25;12.25;;;;;;;3.36;67.40;98926.97;7671899;32;40130;-84
2023/01/20 12:44:31;;;;;;;24.60;11.60;;;;;;;2.96;68.69;98934.13;7684502;32;40769;-88
2023/01/20 12:49:10;;;;;;;22.62;14.07;;;;;;;2.99;68.06;98941.75;7678987;32;37771;-85
2023/01/20 12:53:47;;;;;;;;;;;;;;;2.53;70.00;98927.44;7671892;32;38021;-85
2023/01/20 12:58:28;;;;;;;23.07;12.83;;;;;;;3.00;68.22;98923.69;7680857;32;39541;-87
2023/01/20 13:03:09;;;;;;;25.17;13.88;;;;;;;2.81;69.04;98932.00;7680060;32;40867;-86
2023/01/20 13:07:40;;;;;;;24.08;13.85;;;;;;;2.73;69.67;98940.47;7683327;32;37714;-85
2023/01/20 13:12:22;;;;;;;25.92;13.55;;;;;;;2.75;69.58;98942.94;7684477;32;37207;-87
2023/01/20 13:16:48;;;;;;;23.80;13.07;;;;;;;2.75;69.13;98937.53;7674210;32;40026;-86
2023/01/20 13:21:04;;;;;;;30.33;15.25;;;;;;;2.53;70.53;98945.47;7671221;32;40807;-87
2023/01/20 13:25:23;;;;;;;22.52;14.10;;;;;;;2.98;69.12;98940.13;7684253;32;37366;-87
2023/01/20 13:29:54;;;;;;;27.67;15.23;;;;;;;3.03;68.80;98939.38;7670832;32;36983;-85
2023/01/20 13:34:21;;;;;;;22.83;13.40;;;;;;;3.48;67.38;98940.38;7684696;32;40175;-87
2023/01/20 13:38:39;;;;;;;31.45;17.23;;;;;;;3.72;67.03;98946.38;7684485;32;40841;-85
2023/01/20 13:42:55;;;;;;;24.85;14.35;;;;;;;3.50;67.42;98955.25;7684254;32;37975;-85
2023/01/20 13:47:34;;;;;;;26.95;15.05;;;;;;;3.68;67.03;98951.47;7671043;32;36546;-86
2023/01/20 13:51:50;;;;;;;26.70;14.80;;;;;;;4.00;65.96;98952.72;7660259;32;39483;-86
2023/01/20 13:56:25;;;;;;;26.85;15.40;;;;;;;3.88;66.41;98944.72;7668990;32;40037;-86
2023/01/20 14:00:42;;;;;;;26.52;13.93;;;;;;;4.08;65.86;98939.59;7669981;32;38468;-85
2023/01/20 14:05:01;;;;;;;24.92;14.60;;;;;;;4.04;65.86;98946.56;7663220;32;37916;-85
2023/01/20 14:09:21;;;;;;;27.67;14.80;;;;;;;3.29;68.13;98954.09;7657441;32;39013;-85
2023/01/20 14:13:38;;;;;;;28.48;15.23;;;;;;;3.32;68.11;98953.59;7665420;32;40080;-84
2023/01/20 14:17:57;;;;;;;27.80;15.88;;;;;;;3.71;66.90;98944.78;7668452;32;37309;-86
2023/01/20 14:22:27;;;;;;;31.55;16.08;;;;;;;3.64;67.50;98949.50;7657177;32;37317;-83
2023/01/20 14:26:43;;;;;;;31.92;16.87;;;;;;;3.78;67.26;98956.19;7657076;32;38959;-81
2023/01/20 14:31:16;;;;;;;31.15;15.77;;;;;;;4.02;66.22;98961.34;7654655;32;39521;-81
2023/01/20 14:35:35;;;;;;;27.65;15.73;;;;;;;4.10;66.19;98950.94;7654293;32;37948;-81
2023/01/20 14:39:53;;;;;;;30.95;15.30;;;;;;;4.16;66.15;98957.25;7657299;32;36998;-81
2023/01/20 14:44:22;;;;;;;29.92;16.02;;;;;;;4.09;66.76;98952.03;7658578;32;40169;-83
2023/01/20 14:48:39;;;;;;;25.90;14.05;;;;;;;4.06;66.76;98951.72;7658201;32;40561;-81
2023/01/20 14:52:56;;;;;;;21.42;13.02;;;;;;;4.09;66.28;98957.44;7658786;32;37949;-81
2023/01/20 14:57:32;;;;;;;23.00;13.02;;;;;;;3.29;68.80;98964.84;7658876;32;37186;-80
2023/01/20 15:01:59;;;;;;;26.42;13.25;;;;;;;3.31;69.20;98973.53;7659136;32;38973;-82
2023/01/20 15:06:20;;;;;;;22.70;12.98;;;;;;;2.80;71.56;98976.12;7685415;32;40080;-83
2023/01/20 15:10:38;;;;;;;27.17;14.50;;;;;;;3.12;69.74;98980.19;7686011;32;38658;-82
2023/01/20 15:15:06;;;;;;;23.77;12.57;;;;;;;2.35;72.51;98998.41;7685494;32;37205;-85
2023/01/20 15:19:32;;;;;;;26.10;13.43;;;;;;;2.82;71.48;98983.97;7671697;32;39808;-84
2023/01/20 15:23:51;;;;;;;25.52;13.40;;;;;;;3.05;70.88;98979.53;7685273;32;40934;-83
2023/01/20 15:28:27;;;;;;;22.50;12.75;;;;;;;2.99;70.76;98984.81;7685726;32;38703;-84
2023/01/20 15:32:45;;;;;;;28.67;15.63;;;;;;;2.58;72.28;98997.50;7672506;32;37969;-82
2023/01/20 15:37:08;;;;;;;25.23;13.75;;;;;;;2.72;71.28;98997.22;7685769;32;39427;-83
2023/01/20 15:41:24;;;;;;;28.67;14.57;;;;;;;2.86;70.72;98998.56;7684997;32;39940;-83
2023/01/20 15:45:41;;;;;;;25.67;13.85;;;;;;;2.85;70.75;99005.03;7685803;32;36106;-83
2023/01/20 15:49:58;;;;;;;28.20;14.87;;;;;;;2.93;70.44;99003.81;7685217;32;37315;-83
2023/01/20 15:54:14;;;;;;;23.00;13.18;;;;;;;2.61;70.88;99015.06;7684990;32;39963;-84
2023/01/20 15:58:32;;;;;;;28.80;14.57;;;;;;;2.65;71.07;99008.13;7685560;32;39576;-83
2023/01/20 16:02:49;;;;;;;24.10;13.85;;;;;;;2.20;71.73;99012.31;7682809;32;38525;-83
2023/01/20 16:07:13;;;;;;;25.12;13.20;;;;;;;2.50;71.08;99005.13;7685486;32;37594;-83
2023/01/20 16:11:30;;;;;;;;;;;;;;;2.78;69.81;99007.06;7672128;32;39330;-83
2023/01/20 16:15:46;;;;;;;24.92;13.40;;;;;;;2.05;72.60;99004.75;7685369;32;39273;-83
2023/01/20 16:20:03;;;;;;;23.98;13.23;;;;;;;1.83;72.52;99012.59;7685097;32;37457;-84
2023/01/20 16:24:20;;;;;;;21.70;11.70;;;;;;;1.36;74.96;99001.78;7684671;32;37413;-83
2023/01/20 16:28:36;;;;;;;24.17;15.52;;;;;;;1.85;73.64;99009.69;7685292;32;40352;-84
2023/01/20 16:32:53;;;;;;;19.65;11.88;;;;;;;2.20;71.92;99017.72;7684398;32;39929;-83
2023/01/20 16:37:12;;;;;;;22.77;13.18;;;;;;;2.26;71.76;99018.66;7684399;32;37623;-86
2023/01/20 16:41:32;;;;;;;23.92;12.77;;;;;;;2.01;71.96;99011.66;7669754;32;35742;-79
2023/01/20 16:45:54;;;;;;;22.15;13.40;;;;;;;2.33;71.60;99021.19;7683738;32;39362;-79
2023/01/20 16:50:12;;;;;;;20.60;12.37;;;;;;;2.25;71.96;99015.13;7684469;32;38830;-79
2023/01/20 16:54:30;;;;;;;24.90;13.13;;;;;;;2.32;71.46;99015.00;7684344;32;38090;-79
2023/01/20 16:58:48;;;;;;;26.00;13.43;;;;;;;2.46;70.76;99022.81;7684767;32;37258;-79
2023/01/20 17:03:06;;;;;;;28.25;14.57;;;;;;;2.37;70.56;99020.50;7682664;32;41635;-79
2023/01/20 17:07:24;;;;;;;26.37;15.65;;;;;;;2.26;70.71;99032.09;7683481;32;40832;-81
2023/01/20 17:11:41;;;;;;;25.08;14.10;;;;;;;2.33;70.25;99026.56;7683972;32;37962;-80
2023/01/20 17:15:58;;;;;;;27.20;13.88;;;;;;;2.57;69.74;99033.56;7683681;32;37753;-79
2023/01/20 17:20:16;;;;;;;26.95;13.93;;;;;;;2.62;69.47;99041.75;7682425;32;40046;-80
2023/01/20 17:24:33;;;;;;;27.10;15.27;;;;;;;2.82;69.16;99040.50;7681978;32;40282;-79
2023/01/20 17:28:54;;;;;;;25.83;14.70;;;;;;;2.74;69.12;99041.72;7684009;32;38440;-80
2023/01/20 17:33:10;;;;;;;26.87;14.85;;;;;;;2.36;70.57;99042.25;7670184;32;36853;-79
2023/01/20 17:37:27;;;;;;;24.85;13.62;;;;;;;2.87;68.61;99040.59;7682603;32;39327;-81
2023/01/20 17:41:43;;;;;;;25.60;14.68;;;;;;;2.52;69.43;99041.53;7682961;32;40002;-80
2023/01/20 17:46:00;;;;;;;26.73;14.15;;;;;;;2.18;70.44;99043.22;7683596;32;38673;-82
2023/01/20 17:50:17;;;;;;;25.65;14.80;;;;;;;2.00;71.11;99038.75;7682961;32;37170;-79
2023/01/20 17:54:34;;;;;;;22.55;12.82;;;;;;;2.07;70.87;99031.41;7683338;32;40143;-82
2023/01/20 17:58:50;;;;;;;22.62;13.23;;;;;;;1.79;72.24;99024.84;7682879;32;40721;-81
2023/01/20 18:03:08;;;;;;;22.27;11.93;;;;;;;2.24;70.69;99029.66;7682982;32;37810;-79
2023/01/20 18:07:24;;;;;;;19.37;11.90;;;;;;;1.49;73.59;99036.50;7682955;32;37220;-81
2023/01/20 18:11:42;;;;;;;20.60;12.23;;;;;;;2.12;71.51;99034.22;7683225;32;39429;-80
2023/01/20 18:16:04;;;;;;;22.58;11.73;;;;;;;1.99;71.85;99029.88;7668763;32;39389;-79
2023/01/20 18:20:20;;;;;;;18.02;10.80;;;;;;;1.45;73.64;99034.50;7669556;32;38675;-80
2023/01/20 18:24:37;;;;;;;14.87;9.07;;;;;;;1.75;73.02;99026.37;7683103;32;37214;-80
2023/01/20 18:28:56;;;;;;;19.85;10.52;;;;;;;1.84;73.01;99024.97;7682815;32;39643;-80
2023/01/20 18:33:14;;;;;;;23.90;11.98;;;;;;;1.68;73.98;99026.47;7669694;32;40017;-81
2023/01/20 18:37:31;;;;;;;19.67;11.43;;;;;;;1.45;73.57;99018.37;7667884;32;36841;-80
2023/01/20 18:41:49;;;;;;;24.08;12.07;;;;;;;1.85;73.14;99010.50;7668715;32;37135;-79
2023/01/20 18:46:08;;;;;;;40.97;21.23;;;;;;;1.96;72.07;98999.97;7686815;32;39195;-77
2023/01/20 18:50:28;;;;;;;25.05;15.23;;;;;;;2.37;70.89;98990.09;7681904;32;39605;-79
2023/01/20 18:54:45;;;;;;;24.52;13.98;;;;;;;2.27;71.03;98989.88;7681817;32;38549;-79
2023/01/20 18:59:04;;;;;;;23.50;12.85;;;;;;;1.68;73.62;98991.56;7680911;32;38025;-80
2023/01/20 19:03:26;;;;;;;20.98;12.13;;;;;;;2.12;72.17;98988.50;7667389;32;39692;-80
2023/01/20 19:07:48;;;;;;;21.55;11.23;;;;;;;2.01;72.29;98983.94;7663686;32;39597;-79
2023/01/20 19:12:05;;;;;;;19.95;10.85;;;;;;;2.09;71.75;98980.91;7680395;32;37939;-81
2023/01/20 19:16:23;;;;;;;22.05;12.55;;;;;;;2.13;71.90;98986.63;7672046;32;36894;-79
2023/01/20 19:20:39;;;;;;;24.60;12.80;;;;;;;1.38;74.48;98985.44;7653873;32;39696;-79
2023/01/20 19:24:56;;;;;;;22.62;13.50;;;;;;;1.72;74.37;98970.41;7656701;32;39528;-80
2023/01/20 19:29:14;;;;;;;27.33;15.60;;;;;;;1.74;73.96;98973.66;7658323;32;37780;-80
2023/01/20 19:33:33;;;;;;;23.08;14.32;;;;;;;1.85;73.18;98978.22;7658216;32;37137;-79
2023/01/20 19:37:51;;;;;;;24.00;13.00;;;;;;;2.09;72.75;98986.28;7658533;32;39851;-79
2023/01/20 19:42:08;;;;;;;26.05;14.13;;;;;;;1.87;73.10;98992.25;7659318;32;39998;-81
2023/01/20 19:46:30;;;;;;;26.37;14.60;;;;;;;1.90;73.54;98995.53;7658111;32;39090;-79
2023/01/20 19:50:47;;;;;;;27.92;13.38;;;;;;;1.69;73.87;99012.00;7657923;32;37340;-79
2023/01/20 19:55:05;;;;;;;27.35;14.50;;;;;;;1.59;74.80;99010.97;7655622;32;39243;-81
2023/01/20 19:59:21;;;;;;;28.73;13.93;;;;;;;1.45;75.47;99021.91;7659026;32;39599;-79
2023/01/20 20:03:38;;;;;;;25.15;13.98;;;;;;;1.77;74.48;99018.09;7680920;32;38718;-79
2023/01/20 20:07:54;;;;;;;27.35;14.80;;;;;;;1.92;73.66;99031.06;7700537;32;38101;-80
2023/01/20 20:12:11;;;;;;;25.65;14.70;;;;;;;1.98;73.35;99032.81;7698589;32;39426;-80
2023/01/20 20:16:28;;;;;;;29.63;15.18;;;;;;;2.04;73.24;99031.88;7685179;32;41169;-80
2023/01/20 20:20:45;;;;;;;26.90;13.55;;;;;;;2.14;72.90;99018.66;7684836;32;37950;-79
2023/01/20 20:25:04;;;;;;;30.92;14.87;;;;;;;2.08;73.15;99018.78;7682887;32;37973;-81
2023/01/20 20:29:27;;;;;;;27.00;16.40;;;;;;;1.96;73.52;99040.28;7681649;32;39329;-80
2023/01/20 20:33:47;;;;;;;28.40;14.90;;;;;;;1.88;73.98;99044.16;7680785;32;42137;-78